Time;durP1;ratioP1;P1;durP2;ratioP2;P2;SDS_P1;SDS_P2;PMS_P1;PMS_P2;Temp;Humidity;BMP_temperature;BMP_pressure;BME280_temperature;BME280_humidity;BME280_pressure;Samples;Min_cycle;Max_cycle;Signal;HPM_P1;HPM_P2
2023/09/17 00:00:33;;;;;;;9.80;8.27;;;20.30;99.90;;;;;;5084710;28;20301;-65
2023/09/17 00:03:01;;;;;;;8.30;7.50;;;20.30;99.90;;;;;;5084928;28;20221;-65
2023/09/17 00:05:28;;;;;;;10.15;8.05;;;20.20;99.90;;;;;;5084953;28;20926;-65
2023/09/17 00:07:56;;;;;;;8.23;7.50;;;20.20;99.90;;;;;;5066204;28;20310;-65
2023/09/17 00:10:23;;;;;;;8.40;7.60;;;20.20;99.90;;;;;;5084107;28;20350;-65
2023/09/17 00:12:53;;;;;;;8.50;7.63;;;20.10;99.90;;;;;;5084308;28;20246;-65
2023/09/17 00:15:20;;;;;;;7.17;6.57;;;20.10;99.90;;;;;;5084622;28;20211;-65
2023/09/17 00:17:47;;;;;;;8.20;7.60;;;20.10;99.90;;;;;;5084766;28;20298;-65
2023/09/17 00:20:14;;;;;;;7.87;7.27;;;20.10;99.90;;;;;;5084777;28;20214;-65
2023/09/17 00:22:41;;;;;;;7.57;7.00;;;20.10;99.90;;;;;;5084725;28;20214;-65
2023/09/17 00:25:10;;;;;;;8.82;8.07;;;20.10;99.90;;;;;;5084823;28;20217;-65
2023/09/17 00:27:39;;;;;;;8.52;7.72;;;20.00;99.90;;;;;;5084686;28;20203;-65
2023/09/17 00:30:07;;;;;;;8.23;7.55;;;20.00;99.90;;;;;;5084896;28;20239;-65
2023/09/17 00:32:34;;;;;;;8.63;7.93;;;20.00;99.90;;;;;;5067398;28;20223;-65
2023/09/17 00:35:01;;;;;;;8.93;7.65;;;19.90;99.90;;;;;;5064617;28;20331;-65
2023/09/17 00:37:27;;;;;;;8.93;8.10;;;19.90;99.90;;;;;;5083284;28;20301;-65
2023/09/17 00:39:55;;;;;;;8.40;7.70;;;19.80;99.90;;;;;;5084488;28;20295;-66
2023/09/17 00:42:23;;;;;;;7.53;7.03;;;19.80;99.90;;;;;;5084751;28;20203;-65
2023/09/17 00:44:50;;;;;;;7.83;7.23;;;19.80;99.90;;;;;;5087867;28;20298;-66
2023/09/17 00:47:17;;;;;;;7.97;7.25;;;19.80;99.90;;;;;;5088733;28;20676;-65
2023/09/17 00:49:44;;;;;;;7.90;7.22;;;19.80;99.90;;;;;;5088660;28;20337;-65
2023/09/17 00:52:16;;;;;;;7.97;7.27;;;19.70;99.90;;;;;;5088701;28;20239;-65
2023/09/17 00:54:46;;;;;;;7.88;7.28;;;19.70;99.90;;;;;;5088898;28;20274;-65
2023/09/17 00:57:15;;;;;;;8.70;7.90;;;19.70;99.90;;;;;;5088362;28;20301;-65
2023/09/17 00:59:44;;;;;;;8.13;7.43;;;19.70;99.90;;;;;;5087229;28;20235;-64
2023/09/17 01:02:12;;;;;;;9.13;8.17;;;19.60;99.90;;;;;;5088056;28;20199;-64
2023/09/17 01:04:41;;;;;;;8.37;7.70;;;19.60;99.90;;;;;;5088221;28;20288;-65
2023/09/17 01:07:10;;;;;;;8.47;7.60;;;19.50;99.90;;;;;;5088228;28;21012;-65
2023/09/17 01:09:38;;;;;;;8.57;7.77;;;19.50;99.90;;;;;;5088140;28;20291;-64
2023/09/17 01:12:07;;;;;;;8.53;7.73;;;19.40;99.90;;;;;;5087758;28;20199;-65
2023/09/17 01:14:35;;;;;;;7.93;7.43;;;19.40;99.90;;;;;;5071618;28;20212;-66
2023/09/17 01:17:04;;;;;;;8.90;8.00;;;19.40;99.90;;;;;;5069439;28;20298;-65
2023/09/17 01:19:33;;;;;;;8.70;7.77;;;19.40;99.90;;;;;;5068274;28;20286;-68
2023/09/17 01:22:06;;;;;;;8.90;8.00;;;19.40;99.90;;;;;;5068199;28;20627;-66
2023/09/17 01:24:40;;;;;;;8.53;7.83;;;19.40;99.90;;;;;;5074558;28;20206;-67
2023/09/17 01:27:10;;;;;;;8.93;7.97;;;19.30;99.90;;;;;;5068817;28;20886;-66
2023/09/17 01:29:47;;;;;;;8.83;8.13;;;19.30;99.90;;;;;;5073389;28;20219;-66
2023/09/17 01:32:14;;;;;;;8.17;7.57;;;19.20;99.90;;;;;;5088228;28;20226;-66
2023/09/17 01:34:44;;;;;;;8.80;8.10;;;19.20;99.90;;;;;;5087942;28;20213;-66
2023/09/17 01:37:17;;;;;;;8.80;8.10;;;19.20;99.90;;;;;;5084811;28;20290;-67
2023/09/17 01:39:48;;;;;;;8.90;8.10;;;19.20;99.90;;;;;;5087420;28;20972;-67
2023/09/17 01:42:18;;;;;;;9.20;8.40;;;19.20;99.90;;;;;;5087864;28;20198;-66
2023/09/17 01:44:49;;;;;;;9.30;8.47;;;19.10;99.90;;;;;;5087259;28;20637;-66
2023/09/17 01:47:17;;;;;;;9.20;8.40;;;19.10;99.90;;;;;;5069500;28;20290;-66
2023/09/17 01:49:45;;;;;;;9.50;8.60;;;19.10;99.90;;;;;;5067371;28;20697;-66
2023/09/17 01:52:14;;;;;;;9.30;8.43;;;19.10;99.90;;;;;;5067538;28;20335;-66
2023/09/17 01:54:41;;;;;;;9.77;8.93;;;19.10;99.90;;;;;;5066440;28;20298;-66
2023/09/17 01:57:08;;;;;;;9.37;8.57;;;19.00;99.90;;;;;;5068229;28;20231;-66
2023/09/17 01:59:36;;;;;;;9.60;8.80;;;19.00;99.90;;;;;;5087284;28;20289;-66
2023/09/17 02:02:03;;;;;;;9.67;8.87;;;19.00;99.90;;;;;;5087436;28;20210;-66
2023/09/17 02:04:30;;;;;;;9.53;8.73;;;19.00;99.90;;;;;;5087577;28;20637;-66
2023/09/17 02:06:57;;;;;;;9.40;8.60;;;19.00;99.90;;;;;;5087006;28;20302;-67
2023/09/17 02:09:24;;;;;;;9.83;9.03;;;19.00;99.90;;;;;;5083052;28;20287;-67
2023/09/17 02:11:51;;;;;;;9.43;8.50;;;18.90;99.90;;;;;;5066254;28;21051;-66
2023/09/17 02:14:18;;;;;;;9.03;8.30;;;18.80;99.90;;;;;;5065900;28;20302;-66
2023/09/17 02:16:46;;;;;;;9.37;8.57;;;18.80;99.90;;;;;;5066380;28;20211;-68
2023/09/17 02:19:13;;;;;;;9.20;8.50;;;18.90;99.90;;;;;;5066740;28;20227;-66
2023/09/17 02:21:40;;;;;;;11.33;8.80;;;18.80;99.90;;;;;;5072290;28;20319;-67
2023/09/17 02:24:07;;;;;;;9.67;8.70;;;18.80;99.90;;;;;;5086857;28;20225;-66
2023/09/17 02:26:34;;;;;;;9.83;8.83;;;18.80;99.90;;;;;;5080724;28;20949;-66
2023/09/17 02:29:01;;;;;;;8.57;7.87;;;18.70;99.90;;;;;;5086074;28;20207;-66
2023/09/17 02:31:28;;;;;;;10.20;9.23;;;18.70;99.90;;;;;;5066398;28;20374;-66
2023/09/17 02:33:56;;;;;;;10.03;9.13;;;18.70;99.90;;;;;;5065908;28;20749;-66
2023/09/17 02:36:23;;;;;;;8.93;8.10;;;18.70;99.90;;;;;;5066295;28;20952;-66
2023/09/17 02:38:50;;;;;;;10.43;9.40;;;18.60;99.90;;;;;;5066227;28;20571;-66
2023/09/17 02:41:17;;;;;;;9.70;8.77;;;18.60;99.90;;;;;;5082116;28;20332;-67
2023/09/17 02:43:44;;;;;;;8.90;8.03;;;18.60;99.90;;;;;;5086457;28;20345;-66
2023/09/17 02:46:11;;;;;;;9.73;8.83;;;18.60;99.90;;;;;;5072866;28;20203;-66
2023/09/17 02:48:38;;;;;;;9.90;8.87;;;18.50;99.90;;;;;;5066011;28;20219;-67
2023/09/17 02:51:06;;;;;;;9.87;8.73;;;18.50;99.90;;;;;;5066153;28;20242;-66
2023/09/17 02:53:33;;;;;;;9.60;8.77;;;18.50;99.90;;;;;;5066241;28;20290;-67
2023/09/17 02:56:00;;;;;;;9.87;8.87;;;18.50;99.90;;;;;;5066262;28;20302;-66
2023/09/17 02:58:27;;;;;;;10.40;9.40;;;18.50;99.90;;;;;;5066142;28;20307;-66
2023/09/17 03:00:54;;;;;;;9.47;8.77;;;18.40;99.90;;;;;;5065843;28;20325;-66
2023/09/17 03:03:22;;;;;;;9.83;9.03;;;18.40;99.90;;;;;;5066023;28;20302;-66
2023/09/17 03:05:49;;;;;;;9.93;8.93;;;18.40;99.90;;;;;;5071951;28;20207;-66
2023/09/17 03:08:17;;;;;;;9.83;9.03;;;18.30;99.90;;;;;;5086143;28;20213;-66
2023/09/17 03:10:44;;;;;;;10.70;9.70;;;18.30;99.90;;;;;;5078109;28;20331;-66
2023/09/17 03:13:14;;;;;;;10.20;9.20;;;18.30;99.90;;;;;;5066186;28;20353;-66
2023/09/17 03:15:41;;;;;;;10.93;9.93;;;18.30;99.90;;;;;;5066196;28;20596;-66
2023/09/17 03:18:08;;;;;;;9.67;8.93;;;18.20;99.90;;;;;;5065591;28;20211;-66
2023/09/17 03:20:35;;;;;;;10.73;9.73;;;18.20;99.90;;;;;;5065550;28;20684;-66
2023/09/17 03:23:04;;;;;;;10.50;9.40;;;18.20;99.90;;;;;;5077331;28;20234;-66
2023/09/17 03:25:32;;;;;;;10.40;9.50;;;18.20;99.90;;;;;;5085530;28;20759;-66
2023/09/17 03:28:00;;;;;;;10.33;9.33;;;18.20;99.90;;;;;;5085804;28;20289;-66
2023/09/17 03:30:27;;;;;;;10.20;9.23;;;18.20;99.90;;;;;;5085665;28;20307;-66
2023/09/17 03:32:54;;;;;;;9.73;8.83;;;18.20;99.90;;;;;;5085127;28;20231;-66
2023/09/17 03:35:21;;;;;;;10.20;9.40;;;18.20;99.90;;;;;;5077178;28;20211;-66
2023/09/17 03:37:48;;;;;;;10.30;9.40;;;18.20;99.90;;;;;;5085726;28;20218;-66
2023/09/17 03:40:15;;;;;;;11.20;10.30;;;18.20;99.90;;;;;;5085379;28;20696;-66
2023/09/17 03:42:46;;;;;;;11.00;10.10;;;18.10;99.90;;;;;;5085656;28;20206;-66
2023/09/17 03:45:14;;;;;;;11.13;9.43;;;18.10;99.90;;;;;;5082806;28;20243;-66
2023/09/17 03:47:43;;;;;;;10.37;9.37;;;18.00;99.90;;;;;;5065251;28;20230;-66
2023/09/17 03:50:13;;;;;;;10.17;9.13;;;17.90;99.90;;;;;;5065695;28;20235;-66
2023/09/17 03:52:42;;;;;;;10.17;9.37;;;17.80;99.90;;;;;;5065122;28;20217;-66
2023/09/17 03:55:10;;;;;;;9.57;8.80;;;17.80;99.90;;;;;;5065352;28;20222;-66
2023/09/17 03:57:38;;;;;;;9.63;8.83;;;17.80;99.90;;;;;;5066762;28;20199;-66
2023/09/17 04:00:10;;;;;;;9.60;8.80;;;17.80;99.90;;;;;;5065330;28;20242;-66
2023/09/17 04:02:37;;;;;;;9.83;8.93;;;17.80;99.90;;;;;;5075367;28;20199;-66
2023/09/17 04:05:08;;;;;;;10.60;9.63;;;17.90;99.90;;;;;;5085257;28;20326;-66
2023/09/17 04:07:35;;;;;;;9.73;8.83;;;17.90;99.90;;;;;;5085167;28;20222;-66
2023/09/17 04:10:05;;;;;;;9.23;8.43;;;17.90;99.90;;;;;;5075646;28;20211;-66
2023/09/17 04:12:33;;;;;;;10.20;9.10;;;17.80;99.90;;;;;;5065603;28;20633;-66
2023/09/17 04:15:00;;;;;;;9.97;9.17;;;17.90;99.90;;;;;;5064946;28;21044;-66
2023/09/17 04:17:28;;;;;;;10.30;9.30;;;17.80;99.90;;;;;;5064755;28;20395;-66
2023/09/17 04:19:55;;;;;;;10.03;9.03;;;17.80;99.90;;;;;;5082914;28;20732;-66
2023/09/17 04:22:22;;;;;;;10.03;9.17;;;17.80;99.90;;;;;;5074185;28;20239;-66
2023/09/17 04:24:49;;;;;;;9.57;8.60;;;17.70;99.90;;;;;;5065262;28;20291;-66
2023/09/17 04:27:16;;;;;;;9.87;8.97;;;17.70;99.90;;;;;;5064840;28;20566;-66
2023/09/17 04:29:43;;;;;;;9.57;8.77;;;17.70;99.90;;;;;;5064469;28;20580;-66
2023/09/17 04:32:12;;;;;;;9.50;8.73;;;17.70;99.90;;;;;;5067283;28;20346;-66
2023/09/17 04:34:40;;;;;;;9.90;9.10;;;17.70;99.90;;;;;;5084639;28;20297;-66
2023/09/17 04:37:07;;;;;;;9.60;8.67;;;17.70;99.90;;;;;;5084792;28;20297;-66
2023/09/17 04:39:34;;;;;;;10.33;9.20;;;17.70;99.90;;;;;;5084234;28;20321;-66
2023/09/17 04:42:01;;;;;;;10.13;9.17;;;17.70;99.90;;;;;;5070832;28;20272;-66
2023/09/17 04:44:29;;;;;;;10.20;9.23;;;17.60;99.90;;;;;;5064225;28;20298;-66
2023/09/17 04:46:55;;;;;;;10.07;9.23;;;17.60;99.90;;;;;;5064567;28;20207;-66
2023/09/17 04:49:22;;;;;;;10.17;9.17;;;17.60;99.90;;;;;;5064584;28;20306;-66
2023/09/17 04:51:51;;;;;;;10.07;9.07;;;17.60;99.90;;;;;;5064360;28;20262;-66
2023/09/17 04:54:18;;;;;;;10.40;9.50;;;17.60;99.90;;;;;;5079761;28;20505;-66
2023/09/17 04:56:45;;;;;;;10.83;9.77;;;17.60;99.90;;;;;;5084673;28;20219;-66
2023/09/17 04:59:12;;;;;;;10.43;9.53;;;17.60;99.90;;;;;;5084652;28;20401;-66
2023/09/17 05:01:39;;;;;;;10.77;9.67;;;17.60;99.90;;;;;;5084170;28;20203;-66
2023/09/17 05:04:06;;;;;;;10.67;9.47;;;17.60;99.90;;;;;;5082829;28;20201;-66
2023/09/17 05:06:33;;;;;;;9.50;8.80;;;17.60;99.90;;;;;;5083734;28;20201;-66
2023/09/17 05:09:04;;;;;;;10.37;9.37;;;17.60;99.90;;;;;;5084280;28;20760;-66
2023/09/17 05:11:31;;;;;;;10.57;9.40;;;17.60;99.90;;;;;;5084627;28;20261;-66
2023/09/17 05:13:58;;;;;;;10.60;9.60;;;17.60;99.90;;;;;;5083846;28;20203;-66
2023/09/17 05:16:25;;;;;;;10.93;9.83;;;17.60;99.90;;;;;;5083747;28;20695;-66
2023/09/17 05:18:52;;;;;;;10.60;9.57;;;17.60;99.90;;;;;;5084333;28;20568;-66
2023/09/17 05:21:19;;;;;;;10.43;9.50;;;17.60;99.90;;;;;;5084558;28;20660;-66
2023/09/17 05:23:46;;;;;;;11.83;9.93;;;17.60;99.90;;;;;;5084390;28;20198;-66
2023/09/17 05:26:15;;;;;;;12.00;9.47;;;17.60;99.90;;;;;;5079422;28;20198;-66
2023/09/17 05:28:42;;;;;;;11.37;9.47;;;17.60;99.90;;;;;;5084080;28;20206;-66
2023/09/17 05:31:09;;;;;;;12.70;9.30;;;17.60;99.90;;;;;;5087751;28;20307;-66
2023/09/17 05:33:36;;;;;;;10.57;9.53;;;17.60;99.90;;;;;;5088188;28;20198;-66
2023/09/17 05:36:03;;;;;;;10.50;9.43;;;17.60;99.90;;;;;;5086483;28;20241;-66
2023/09/17 05:38:30;;;;;;;9.43;8.60;;;17.70;99.90;;;;;;5088343;28;20460;-66
2023/09/17 05:40:57;;;;;;;10.70;9.63;;;17.70;99.90;;;;;;5087399;28;20266;-66
2023/09/17 05:43:26;;;;;;;11.00;9.87;;;17.70;99.90;;;;;;5087581;28;20207;-66
2023/09/17 05:45:56;;;;;;;13.17;10.67;;;17.70;99.90;;;;;;5087800;28;20338;-66
2023/09/17 05:48:23;;;;;;;9.73;8.73;;;17.80;99.90;;;;;;5087808;28;20264;-66
2023/09/17 05:50:52;;;;;;;11.97;9.03;;;17.80;99.90;;;;;;5087619;28;20241;-66
2023/09/17 05:53:19;;;;;;;10.00;9.10;;;17.80;99.90;;;;;;5072992;28;20223;-66
2023/09/17 05:55:46;;;;;;;10.30;9.50;;;17.90;99.90;;;;;;5083101;28;20741;-66
2023/09/17 05:58:13;;;;;;;10.27;9.27;;;17.80;99.90;;;;;;5087551;28;20286;-66
2023/09/17 06:00:41;;;;;;;10.50;9.50;;;17.90;99.90;;;;;;5071919;28;20314;-66
2023/09/17 06:03:08;;;;;;;10.17;9.10;;;17.90;99.90;;;;;;5067073;28;20666;-67
2023/09/17 06:05:36;;;;;;;13.47;10.17;;;18.00;99.90;;;;;;5067308;28;20230;-66
2023/09/17 06:08:03;;;;;;;11.00;10.00;;;18.00;99.90;;;;;;5067180;28;20307;-66
2023/09/17 06:10:30;;;;;;;11.03;9.93;;;18.10;99.90;;;;;;5070321;28;20836;-66
2023/09/17 06:12:58;;;;;;;10.97;9.87;;;18.10;99.90;;;;;;5072012;28;20271;-66
2023/09/17 06:15:26;;;;;;;11.63;10.00;;;18.10;99.90;;;;;;5066801;28;20688;-66
2023/09/17 06:17:54;;;;;;;11.40;9.90;;;18.20;99.90;;;;;;5074642;28;20203;-66
2023/09/17 06:20:21;;;;;;;11.50;10.30;;;18.20;99.90;;;;;;5077932;28;20748;-66
2023/09/17 06:22:48;;;;;;;12.40;11.10;;;18.20;99.90;;;;;;5075385;28;20234;-66
2023/09/17 06:25:15;;;;;;;11.50;10.40;;;18.20;99.90;;;;;;5080031;28;20211;-66
2023/09/17 06:27:42;;;;;;;11.77;10.40;;;18.20;99.90;;;;;;5070011;28;20199;-66
2023/09/17 06:30:10;;;;;;;11.60;10.50;;;18.20;99.90;;;;;;5067435;28;20303;-65
2023/09/17 06:32:37;;;;;;;11.70;10.70;;;18.30;99.90;;;;;;5071194;28;21005;-66
2023/09/17 06:35:07;;;;;;;11.30;10.20;;;18.40;99.90;;;;;;5083453;28;20257;-66
2023/09/17 06:37:33;;;;;;;11.00;9.93;;;18.50;99.90;;;;;;5086667;28;20209;-66
2023/09/17 06:40:00;;;;;;;10.87;9.97;;;18.50;99.90;;;;;;5086906;28;20285;-66
2023/09/17 06:42:27;;;;;;;11.43;10.33;;;18.60;99.90;;;;;;5086408;28;20205;-66
2023/09/17 06:44:54;;;;;;;11.13;10.07;;;18.60;99.90;;;;;;5086846;28;20210;-65
2023/09/17 06:47:21;;;;;;;12.17;10.80;;;18.60;99.90;;;;;;5086919;28;20301;-66
2023/09/17 06:49:48;;;;;;;11.80;10.67;;;18.60;99.90;;;;;;5081651;28;20294;-66
2023/09/17 06:52:16;;;;;;;10.47;9.67;;;18.60;99.90;;;;;;5083820;28;20242;-65
2023/09/17 06:54:44;;;;;;;11.07;10.07;;;18.70;99.90;;;;;;5086388;28;20222;-65
2023/09/17 06:57:10;;;;;;;11.77;10.67;;;18.70;99.90;;;;;;5086979;28;20211;-66
2023/09/17 06:59:37;;;;;;;11.77;10.67;;;18.70;99.90;;;;;;5082779;28;20239;-66
2023/09/17 07:02:04;;;;;;;11.97;10.30;;;18.80;99.90;;;;;;5084958;28;20301;-65
2023/09/17 07:04:31;;;;;;;11.03;10.00;;;18.80;99.90;;;;;;5086514;28;20238;-66
2023/09/17 07:07:00;;;;;;;10.60;9.80;;;19.00;99.90;;;;;;5081590;28;20652;-66
2023/09/17 07:09:29;;;;;;;11.03;9.93;;;19.10;99.90;;;;;;5085482;28;20245;-66
2023/09/17 07:11:56;;;;;;;11.00;10.00;;;19.20;99.90;;;;;;5086224;28;20234;-66
2023/09/17 07:14:23;;;;;;;11.07;10.07;;;19.30;99.90;;;;;;5085786;28;20217;-66
2023/09/17 07:16:50;;;;;;;9.73;8.93;;;19.20;99.90;;;;;;5085654;28;20301;-66
2023/09/17 07:19:16;;;;;;;10.87;10.07;;;19.30;99.90;;;;;;5085986;28;20213;-66
2023/09/17 07:21:43;;;;;;;10.53;9.73;;;19.30;99.90;;;;;;5085652;28;20211;-66
2023/09/17 07:24:10;;;;;;;9.97;9.10;;;19.30;99.90;;;;;;5080204;28;20310;-66
2023/09/17 07:26:38;;;;;;;12.80;9.63;;;19.40;99.90;;;;;;5065401;28;20218;-71
2023/09/17 07:29:05;;;;;;;10.33;9.43;;;19.50;99.90;;;;;;5065600;28;20291;-66
2023/09/17 07:31:32;;;;;;;10.23;9.33;;;19.50;99.90;;;;;;5065642;28;20314;-66
2023/09/17 07:33:59;;;;;;;10.67;9.77;;;19.60;99.90;;;;;;5083275;28;20672;-66
2023/09/17 07:36:26;;;;;;;10.63;9.73;;;19.70;99.90;;;;;;5085288;28;20227;-66
2023/09/17 07:38:53;;;;;;;9.80;8.87;;;19.70;99.90;;;;;;5083205;28;20294;-66
2023/09/17 07:41:20;;;;;;;8.83;8.13;;;19.80;99.90;;;;;;5085245;28;20374;-66
2023/09/17 07:43:48;;;;;;;9.03;8.23;;;19.90;99.90;;;;;;5084950;28;20350;-66
2023/09/17 07:46:15;;;;;;;9.00;8.30;;;20.00;99.90;;;;;;5085457;28;20297;-66
2023/09/17 07:48:42;;;;;;;9.40;8.60;;;20.10;99.90;;;;;;5078496;28;20212;-66
2023/09/17 07:51:09;;;;;;;8.40;7.77;;;20.20;99.90;;;;;;5064970;28;20207;-66
2023/09/17 07:53:36;;;;;;;9.50;8.50;;;20.20;99.90;;;;;;5064897;28;20888;-65
2023/09/17 07:56:03;;;;;;;7.93;7.38;;;20.30;99.90;;;;;;5065152;28;20346;-65
2023/09/17 07:58:30;;;;;;;8.40;7.63;;;20.40;99.90;;;;;;5064298;28;20265;-66
2023/09/17 08:00:58;;;;;;;8.48;7.78;;;20.40;99.90;;;;;;5065020;28;20207;-66
2023/09/17 08:03:25;;;;;;;11.45;7.88;;;20.50;99.90;;;;;;5071256;28;20288;-65
2023/09/17 08:05:52;;;;;;;7.80;7.10;;;20.50;99.90;;;;;;5084883;28;20230;-66
2023/09/17 08:08:20;;;;;;;8.68;7.97;;;20.60;99.90;;;;;;5085098;28;20203;-66
2023/09/17 08:10:47;;;;;;;8.63;7.72;;;20.70;99.90;;;;;;5085096;28;20203;-66
2023/09/17 08:13:14;;;;;;;8.45;7.43;;;20.80;99.90;;;;;;5084705;28;20568;-66
2023/09/17 08:15:41;;;;;;;8.77;8.18;;;20.80;99.90;;;;;;5085129;28;20217;-65
2023/09/17 08:18:10;;;;;;;9.43;8.38;;;20.90;99.90;;;;;;5085196;28;20225;-65
2023/09/17 08:20:37;;;;;;;9.00;8.40;;;20.90;99.90;;;;;;5084557;28;20202;-65
2023/09/17 08:23:04;;;;;;;9.40;8.70;;;21.00;99.90;;;;;;5082967;28;20227;-65
2023/09/17 08:25:33;;;;;;;12.47;8.77;;;21.10;99.90;;;;;;5085492;28;20210;-65
2023/09/17 08:28:00;;;;;;;9.32;8.48;;;21.20;99.90;;;;;;5067296;28;20211;-65
2023/09/17 08:30:27;;;;;;;10.57;7.93;;;21.30;99.90;;;;;;5063198;28;20298;-65
2023/09/17 08:32:54;;;;;;;9.63;8.63;;;21.40;99.90;;;;;;5080141;28;20538;-65
2023/09/17 08:35:23;;;;;;;8.82;7.95;;;21.50;99.90;;;;;;5083198;28;20221;-65
2023/09/17 08:37:50;;;;;;;9.43;8.57;;;21.60;99.90;;;;;;5083155;28;20210;-65
2023/09/17 08:40:18;;;;;;;9.45;8.35;;;21.70;99.90;;;;;;5082937;28;20238;-65
2023/09/17 08:42:48;;;;;;;11.95;8.20;;;21.80;99.90;;;;;;5064557;28;20207;-65
2023/09/17 08:45:16;;;;;;;7.93;7.25;;;21.90;99.90;;;;;;5083800;28;20203;-65
2023/09/17 08:47:44;;;;;;;8.25;7.65;;;21.90;99.90;;;;;;5083286;28;20267;-66
2023/09/17 08:50:11;;;;;;;7.88;7.18;;;22.00;99.90;;;;;;5083367;28;20657;-66
2023/09/17 08:52:41;;;;;;;7.95;7.25;;;22.10;99.90;;;;;;5083108;28;20242;-66
2023/09/17 08:55:10;;;;;;;9.02;8.00;;;22.20;99.90;;;;;;5065528;28;20199;-65
2023/09/17 08:57:39;;;;;;;8.48;7.68;;;22.20;99.90;;;;;;5062708;28;20235;-65
2023/09/17 09:00:09;;;;;;;8.23;7.57;;;22.30;99.90;;;;;;5072401;28;20244;-66
2023/09/17 09:02:43;;;;;;;10.55;9.55;;;22.30;99.90;;;;;;5082702;28;20214;-65
2023/09/17 09:05:15;;;;;;;8.48;7.68;;;22.40;99.90;;;;;;5077517;28;20198;-65
2023/09/17 09:07:44;;;;;;;8.50;7.45;;;22.50;99.90;;;;;;5066398;28;20298;-65
2023/09/17 09:10:14;;;;;;;8.95;8.10;;;22.70;99.90;;;;;;5084146;28;20213;-65
2023/09/17 09:12:43;;;;;;;9.20;8.20;;;22.70;99.90;;;;;;5086764;28;20265;-65
2023/09/17 09:15:11;;;;;;;8.05;7.35;;;22.80;99.90;;;;;;5080321;28;20211;-65
2023/09/17 09:17:38;;;;;;;7.63;7.03;;;22.80;99.90;;;;;;5086213;28;20716;-65
2023/09/17 09:20:10;;;;;;;9.00;8.10;;;22.80;99.90;;;;;;5086576;28;20230;-65
2023/09/17 09:22:37;;;;;;;7.60;7.03;;;22.80;99.90;;;;;;5086642;28;20249;-65
2023/09/17 09:25:08;;;;;;;8.23;7.38;;;22.90;99.90;;;;;;5086302;28;20745;-65
2023/09/17 09:27:36;;;;;;;7.68;7.03;;;23.10;99.90;;;;;;5080537;28;20306;-65
2023/09/17 09:30:07;;;;;;;7.82;7.10;;;23.20;99.90;;;;;;5070640;28;20732;-65
2023/09/17 09:32:34;;;;;;;8.18;6.93;;;23.30;99.90;;;;;;5081001;28;20234;-66
2023/09/17 09:35:02;;;;;;;7.30;6.70;;;23.40;99.90;;;;;;5086684;28;20267;-66
2023/09/17 09:37:30;;;;;;;7.38;6.65;;;23.40;99.90;;;;;;5078258;28;20909;-66
2023/09/17 09:40:00;;;;;;;8.45;6.68;;;23.40;99.90;;;;;;5076749;28;20243;-65
2023/09/17 09:42:28;;;;;;;7.18;6.65;;;23.40;99.90;;;;;;5085831;28;20734;-66
2023/09/17 09:44:55;;;;;;;7.15;6.57;;;23.40;99.90;;;;;;5085690;28;20814;-66
2023/09/17 09:47:23;;;;;;;6.68;6.25;;;23.50;99.90;;;;;;5085885;28;20213;-65
2023/09/17 09:49:50;;;;;;;6.97;6.38;;;23.50;99.90;;;;;;5085503;28;20202;-65
2023/09/17 09:52:18;;;;;;;8.13;7.40;;;23.60;99.90;;;;;;5076329;28;20322;-65
2023/09/17 09:54:46;;;;;;;7.47;6.97;;;23.70;99.90;;;;;;5085152;28;20313;-65
2023/09/17 09:57:15;;;;;;;6.95;6.38;;;23.80;99.90;;;;;;5085668;28;20211;-65
2023/09/17 09:59:46;;;;;;;6.03;5.63;;;23.90;99.90;;;;;;5085744;28;20206;-66
2023/09/17 10:02:16;;;;;;;6.75;6.15;;;24.10;99.90;;;;;;5085526;28;20477;-65
2023/09/17 10:04:44;;;;;;;6.43;5.93;;;24.20;99.90;;;;;;5085556;28;20230;-65
2023/09/17 10:07:11;;;;;;;5.85;5.45;;;24.30;99.90;;;;;;5084765;28;20695;-66
2023/09/17 10:09:38;;;;;;;5.60;5.18;;;24.30;99.90;;;;;;5068486;28;20314;-65
2023/09/17 10:12:06;;;;;;;6.85;6.15;;;24.40;99.90;;;;;;5085453;28;20954;-65
2023/09/17 10:14:37;;;;;;;6.50;6.00;;;24.50;99.90;;;;;;5085199;28;20206;-65
2023/09/17 10:17:07;;;;;;;7.47;5.82;;;24.60;99.90;;;;;;5083874;28;20195;-66
2023/09/17 10:19:36;;;;;;;5.20;4.90;;;24.80;99.90;;;;;;5085564;28;20195;-65
2023/09/17 10:22:06;;;;;;;5.97;5.30;;;24.80;99.90;;;;;;5085291;28;20318;-65
2023/09/17 10:24:37;;;;;;;4.72;4.43;;;24.80;99.90;;;;;;5085369;28;20215;-65
2023/09/17 10:27:06;;;;;;;4.32;3.92;;;24.90;99.90;;;;;;5079369;28;20221;-65
2023/09/17 10:29:35;;;;;;;4.07;3.45;;;25.00;99.90;;;;;;5064877;28;20208;-66
2023/09/17 10:32:03;;;;;;;4.00;3.60;;;25.00;99.90;;;;;;5064867;28;20234;-65
2023/09/17 10:34:35;;;;;;;4.10;3.90;;;25.10;99.90;;;;;;5079283;28;20238;-66
2023/09/17 10:37:03;;;;;;;4.50;4.20;;;25.20;99.90;;;;;;5084700;28;20299;-66
2023/09/17 10:39:32;;;;;;;4.90;4.50;;;25.40;99.90;;;;;;5083494;28;20207;-66
2023/09/17 10:42:02;;;;;;;5.25;4.95;;;25.60;99.90;;;;;;5085016;28;20202;-66
2023/09/17 10:44:30;;;;;;;8.90;4.47;;;25.60;99.90;;;;;;5084980;28;20210;-66
2023/09/17 10:47:00;;;;;;;5.45;4.63;;;25.80;99.90;;;;;;5084623;28;20195;-66
2023/09/17 10:49:31;;;;;;;4.30;4.00;;;25.80;99.90;;;;;;5068096;28;20204;-65
2023/09/17 10:51:59;;;;;;;3.90;3.58;;;25.90;99.90;;;;;;5068812;28;20202;-65
2023/09/17 10:54:26;;;;;;;4.57;4.28;;;26.00;99.90;;;;;;5084718;28;20270;-65
2023/09/17 10:56:54;;;;;;;4.70;4.30;;;26.10;99.90;;;;;;5084681;28;20203;-65
2023/09/17 10:59:22;;;;;;;4.45;4.20;;;26.30;99.90;;;;;;5070711;28;20238;-66
2023/09/17 11:01:49;;;;;;;5.30;4.80;;;26.30;99.90;;;;;;5082542;28;20235;-65
2023/09/17 11:04:19;;;;;;;4.93;4.40;;;26.40;99.90;;;;;;5084158;28;20209;-66
2023/09/17 11:06:48;;;;;;;4.95;4.65;;;26.40;99.90;;;;;;5084098;28;20263;-66
2023/09/17 11:09:17;;;;;;;3.97;3.70;;;26.50;99.90;;;;;;5084442;28;20314;-66
2023/09/17 11:11:44;;;;;;;3.92;3.63;;;26.60;99.90;;;;;;5066295;28;20867;-66
2023/09/17 11:14:13;;;;;;;4.63;4.25;;;26.80;99.90;;;;;;5063345;28;20369;-66
2023/09/17 11:16:41;;;;;;;4.15;3.92;;;26.80;99.90;;;;;;5063865;28;20670;-66
2023/09/17 11:19:10;;;;;;;4.05;3.58;;;26.90;99.90;;;;;;5063520;28;20295;-65
2023/09/17 11:21:38;;;;;;;4.05;3.75;;;26.90;99.90;;;;;;5064481;28;20300;-66
2023/09/17 11:24:07;;;;;;;3.47;3.28;;;26.90;99.90;;;;;;5064756;28;20209;-65
2023/09/17 11:26:37;;;;;;;3.60;3.30;;;27.00;99.90;;;;;;5064052;28;20203;-66
2023/09/17 11:29:06;;;;;;;3.60;3.28;;;27.00;99.90;;;;;;5063780;28;20277;-66
2023/09/17 11:31:57;;;;;;;3.38;3.17;;;27.20;99.90;;;;;;5065362;28;20250;-66
2023/09/17 11:34:25;;;;;;;3.50;3.30;;;27.40;99.90;;;;;;5075871;28;20715;-66
2023/09/17 11:36:53;;;;;;;7.13;6.65;;;27.50;99.90;;;;;;5077284;28;20578;-66
2023/09/17 11:39:22;;;;;;;4.57;4.28;;;27.50;99.90;;;;;;5083968;28;20305;-66
2023/09/17 11:41:53;;;;;;;3.95;3.65;;;27.60;99.90;;;;;;5083771;28;20228;-66
2023/09/17 11:44:22;;;;;;;4.30;3.90;;;27.70;99.90;;;;;;5071730;28;20211;-66
2023/09/17 11:46:49;;;;;;;5.30;3.85;;;27.80;99.90;;;;;;5064279;28;20242;-66
2023/09/17 11:49:18;;;;;;;5.65;3.97;;;28.00;99.90;;;;;;5077112;28;21035;-66
2023/09/17 11:51:46;;;;;;;4.00;3.70;;;28.10;99.90;;;;;;5083086;28;20211;-66
2023/09/17 11:54:15;;;;;;;3.65;3.45;;;28.40;99.90;;;;;;5083838;28;20237;-66
2023/09/17 11:56:47;;;;;;;6.95;3.70;;;28.40;99.90;;;;;;5083891;28;20213;-66
2023/09/17 11:59:17;;;;;;;4.10;3.60;;;28.50;99.90;;;;;;5083623;28;20195;-66
2023/09/17 12:01:46;;;;;;;4.07;3.88;;;28.60;99.90;;;;;;5083195;28;20252;-65
2023/09/17 12:04:14;;;;;;;3.85;3.55;;;28.70;99.90;;;;;;5082956;28;20207;-66
2023/09/17 12:06:42;;;;;;;4.78;3.55;;;28.70;99.90;;;;;;5083335;28;20290;-66
2023/09/17 12:09:15;;;;;;;3.85;3.55;;;28.80;99.90;;;;;;5083259;28;20292;-65
2023/09/17 12:11:45;;;;;;;3.35;3.10;;;28.90;99.90;;;;;;5083217;28;20256;-65
2023/09/17 12:14:15;;;;;;;3.33;3.03;;;29.00;99.90;;;;;;5083253;28;20334;-65
2023/09/17 12:16:42;;;;;;;3.10;2.90;;;29.10;99.40;;;;;;5073138;28;20221;-65
2023/09/17 12:19:09;;;;;;;3.38;3.28;;;29.10;99.40;;;;;;5063464;28;20319;-66
2023/09/17 12:21:40;;;;;;;3.90;3.70;;;29.30;99.30;;;;;;5063149;28;20214;-66
2023/09/17 12:24:08;;;;;;;4.05;3.53;;;29.30;99.00;;;;;;5063353;28;20282;-66
2023/09/17 12:26:46;;;;;;;3.72;3.45;;;29.50;98.80;;;;;;5073224;28;20264;-65
2023/09/17 12:29:15;;;;;;;4.43;4.13;;;29.60;98.90;;;;;;5070218;28;20204;-66
2023/09/17 12:31:42;;;;;;;3.53;3.28;;;29.80;99.20;;;;;;5062418;28;20231;-66
2023/09/17 12:34:09;;;;;;;3.47;3.17;;;29.90;98.90;;;;;;5062770;28;20292;-66
2023/09/17 12:36:36;;;;;;;4.93;4.63;;;30.00;98.80;;;;;;5062631;28;20607;-66
2023/09/17 12:39:04;;;;;;;3.50;3.30;;;30.10;98.80;;;;;;5071330;28;20323;-66
2023/09/17 12:41:31;;;;;;;3.65;3.40;;;30.20;98.20;;;;;;5070760;28;20235;-66
2023/09/17 12:43:58;;;;;;;3.65;3.45;;;30.30;98.10;;;;;;5067197;28;20322;-66
2023/09/17 12:46:27;;;;;;;3.30;3.10;;;30.40;98.10;;;;;;5087342;28;20207;-66